sensor_id;sensor_type;location;lat;lon;timestamp;P1;durP1;ratioP1;P2;durP2;ratioP2
35576;SDS011;21680;52.400;16.920;2023-03-24T00:01:49;9.10;;;4.90;;
35576;SDS011;21680;52.400;16.920;2023-03-24T00:04:15;13.40;;;5.60;;
35576;SDS011;21680;52.400;16.920;2023-03-24T00:06:40;9.80;;;5.50;;
35576;SDS011;21680;52.400;16.920;2023-03-24T00:09:07;11.50;;;6.00;;
35576;SDS011;21680;52.400;16.920;2023-03-24T00:11:33;10.70;;;5.60;;
35576;SDS011;21680;52.400;16.920;2023-03-24T00:14:02;14.00;;;6.20;;
35576;SDS011;21680;52.400;16.920;2023-03-24T00:16:28;14.60;;;6.80;;
35576;SDS011;21680;52.400;16.920;2023-03-24T00:18:54;16.10;;;7.10;;
35576;SDS011;21680;52.400;16.920;2023-03-24T00:21:21;21.70;;;8.30;;
35576;SDS011;21680;52.400;16.920;2023-03-24T00:23:48;17.90;;;8.20;;
35576;SDS011;21680;52.400;16.920;2023-03-24T00:26:15;22.30;;;9.30;;
35576;SDS011;21680;52.400;16.920;2023-03-24T00:28:43;24.40;;;9.60;;
35576;SDS011;21680;52.400;16.920;2023-03-24T00:31:10;20.30;;;8.60;;
35576;SDS011;21680;52.400;16.920;2023-03-24T00:33:38;18.30;;;8.10;;
35576;SDS011;21680;52.400;16.920;2023-03-24T00:36:05;18.60;;;8.50;;
35576;SDS011;21680;52.400;16.920;2023-03-24T00:38:32;22.50;;;8.30;;
35576;SDS011;21680;52.400;16.920;2023-03-24T00:40:58;18.00;;;8.10;;
35576;SDS011;21680;52.400;16.920;2023-03-24T00:43:25;17.50;;;7.70;;
35576;SDS011;21680;52.400;16.920;2023-03-24T00:45:56;16.90;;;6.90;;
35576;SDS011;21680;52.400;16.920;2023-03-24T00:48:23;21.60;;;8.00;;
35576;SDS011;21680;52.400;16.920;2023-03-24T00:50:49;16.10;;;6.70;;
35576;SDS011;21680;52.400;16.920;2023-03-24T00:53:16;17.20;;;6.90;;
35576;SDS011;21680;52.400;16.920;2023-03-24T00:55:43;13.90;;;5.90;;
35576;SDS011;21680;52.400;16.920;2023-03-24T00:58:13;14.60;;;6.40;;
35576;SDS011;21680;52.400;16.920;2023-03-24T01:00:42;14.40;;;6.20;;
35576;SDS011;21680;52.400;16.920;2023-03-24T01:03:08;11.70;;;5.70;;
35576;SDS011;21680;52.400;16.920;2023-03-24T01:05:34;15.60;;;6.40;;
35576;SDS011;21680;52.400;16.920;2023-03-24T01:08:00;17.80;;;6.00;;
35576;SDS011;21680;52.400;16.920;2023-03-24T01:10:31;15.60;;;6.00;;
35576;SDS011;21680;52.400;16.920;2023-03-24T01:12:59;15.60;;;6.50;;
35576;SDS011;21680;52.400;16.920;2023-03-24T01:15:27;12.40;;;5.80;;
35576;SDS011;21680;52.400;16.920;2023-03-24T01:17:57;17.40;;;5.00;;
35576;SDS011;21680;52.400;16.920;2023-03-24T01:20:22;14.90;;;6.10;;
35576;SDS011;21680;52.400;16.920;2023-03-24T01:22:48;14.40;;;5.70;;
35576;SDS011;21680;52.400;16.920;2023-03-24T01:25:16;14.90;;;5.80;;
35576;SDS011;21680;52.400;16.920;2023-03-24T01:27:43;12.20;;;5.50;;
35576;SDS011;21680;52.400;16.920;2023-03-24T01:30:14;16.40;;;6.60;;
35576;SDS011;21680;52.400;16.920;2023-03-24T01:35:08;10.30;;;5.70;;
35576;SDS011;21680;52.400;16.920;2023-03-24T01:37:35;11.90;;;5.40;;
35576;SDS011;21680;52.400;16.920;2023-03-24T01:40:02;12.00;;;5.10;;
35576;SDS011;21680;52.400;16.920;2023-03-24T01:45:00;13.80;;;5.50;;
35576;SDS011;21680;52.400;16.920;2023-03-24T01:47:26;10.80;;;5.10;;
35576;SDS011;21680;52.400;16.920;2023-03-24T01:49:53;11.70;;;5.40;;
35576;SDS011;21680;52.400;16.920;2023-03-24T01:55:01;12.90;;;5.20;;
35576;SDS011;21680;52.400;16.920;2023-03-24T01:57:36;10.90;;;5.50;;
35576;SDS011;21680;52.400;16.920;2023-03-24T02:00:08;11.80;;;5.10;;
35576;SDS011;21680;52.400;16.920;2023-03-24T02:02:36;15.50;;;6.00;;
35576;SDS011;21680;52.400;16.920;2023-03-24T02:05:07;13.70;;;5.10;;
35576;SDS011;21680;52.400;16.920;2023-03-24T02:10:15;9.60;;;4.40;;
35576;SDS011;21680;52.400;16.920;2023-03-24T02:12:43;11.60;;;5.30;;
35576;SDS011;21680;52.400;16.920;2023-03-24T02:15:10;12.20;;;5.10;;
35576;SDS011;21680;52.400;16.920;2023-03-24T02:17:41;11.80;;;5.10;;
35576;SDS011;21680;52.400;16.920;2023-03-24T02:20:22;19.10;;;6.50;;
35576;SDS011;21680;52.400;16.920;2023-03-24T02:36:54;14.90;;;6.30;;
35576;SDS011;21680;52.400;16.920;2023-03-24T02:44:58;11.60;;;6.00;;
35576;SDS011;21680;52.400;16.920;2023-03-24T02:47:41;14.70;;;6.80;;
35576;SDS011;21680;52.400;16.920;2023-03-24T02:53:01;11.40;;;5.60;;
35576;SDS011;21680;52.400;16.920;2023-03-24T02:55:43;11.00;;;6.00;;
35576;SDS011;21680;52.400;16.920;2023-03-24T02:58:18;12.90;;;5.70;;
35576;SDS011;21680;52.400;16.920;2023-03-24T03:00:52;13.90;;;5.80;;
35576;SDS011;21680;52.400;16.920;2023-03-24T03:03:39;9.30;;;5.20;;
35576;SDS011;21680;52.400;16.920;2023-03-24T03:08:38;10.80;;;5.60;;
35576;SDS011;21680;52.400;16.920;2023-03-24T03:11:05;10.80;;;5.20;;
35576;SDS011;21680;52.400;16.920;2023-03-24T03:13:37;14.30;;;5.60;;
35576;SDS011;21680;52.400;16.920;2023-03-24T03:16:18;11.70;;;5.60;;
35576;SDS011;21680;52.400;16.920;2023-03-24T03:18:56;8.80;;;5.50;;
35576;SDS011;21680;52.400;16.920;2023-03-24T03:21:26;13.30;;;5.70;;
35576;SDS011;21680;52.400;16.920;2023-03-24T03:26:26;15.80;;;6.10;;
35576;SDS011;21680;52.400;16.920;2023-03-24T03:28:57;11.10;;;5.40;;
35576;SDS011;21680;52.400;16.920;2023-03-24T03:31:33;9.50;;;4.70;;
35576;SDS011;21680;52.400;16.920;2023-03-24T03:34:13;11.10;;;4.80;;
35576;SDS011;21680;52.400;16.920;2023-03-24T03:36:52;8.30;;;5.10;;
35576;SDS011;21680;52.400;16.920;2023-03-24T03:39:28;7.70;;;4.70;;
35576;SDS011;21680;52.400;16.920;2023-03-24T03:41:57;6.90;;;4.70;;
35576;SDS011;21680;52.400;16.920;2023-03-24T03:44:23;8.10;;;5.20;;
35576;SDS011;21680;52.400;16.920;2023-03-24T03:46:49;8.20;;;5.10;;
35576;SDS011;21680;52.400;16.920;2023-03-24T03:49:14;14.40;;;5.90;;
35576;SDS011;21680;52.400;16.920;2023-03-24T03:51:40;10.60;;;5.90;;
35576;SDS011;21680;52.400;16.920;2023-03-24T03:54:06;9.20;;;5.00;;
35576;SDS011;21680;52.400;16.920;2023-03-24T03:56:35;8.90;;;5.20;;
35576;SDS011;21680;52.400;16.920;2023-03-24T03:59:02;11.00;;;5.50;;
35576;SDS011;21680;52.400;16.920;2023-03-24T04:01:31;8.10;;;4.80;;
35576;SDS011;21680;52.400;16.920;2023-03-24T04:04:07;8.10;;;4.60;;
35576;SDS011;21680;52.400;16.920;2023-03-24T04:20:23;9.00;;;4.80;;
35576;SDS011;21680;52.400;16.920;2023-03-24T04:23:11;10.10;;;4.60;;
35576;SDS011;21680;52.400;16.920;2023-03-24T04:26:04;8.10;;;4.80;;
35576;SDS011;21680;52.400;16.920;2023-03-24T04:31:28;8.20;;;4.10;;
35576;SDS011;21680;52.400;16.920;2023-03-24T04:33:59;9.30;;;4.80;;
35576;SDS011;21680;52.400;16.920;2023-03-24T04:36:34;10.10;;;5.40;;
35576;SDS011;21680;52.400;16.920;2023-03-24T04:39:11;9.70;;;4.80;;
35576;SDS011;21680;52.400;16.920;2023-03-24T04:41:41;11.70;;;5.00;;
35576;SDS011;21680;52.400;16.920;2023-03-24T04:44:08;9.20;;;4.60;;
35576;SDS011;21680;52.400;16.920;2023-03-24T04:46:35;11.20;;;4.50;;
35576;SDS011;21680;52.400;16.920;2023-03-24T04:49:02;9.50;;;4.80;;
35576;SDS011;21680;52.400;16.920;2023-03-24T04:51:29;9.60;;;4.20;;
35576;SDS011;21680;52.400;16.920;2023-03-24T04:53:56;9.90;;;4.40;;
35576;SDS011;21680;52.400;16.920;2023-03-24T04:59:01;12.00;;;4.60;;
35576;SDS011;21680;52.400;16.920;2023-03-24T05:01:26;8.80;;;4.20;;
35576;SDS011;21680;52.400;16.920;2023-03-24T05:03:57;6.40;;;4.00;;
35576;SDS011;21680;52.400;16.920;2023-03-24T05:06:23;8.10;;;4.30;;
35576;SDS011;21680;52.400;16.920;2023-03-24T05:08:50;7.00;;;4.70;;
35576;SDS011;21680;52.400;16.920;2023-03-24T05:11:17;14.90;;;4.80;;
35576;SDS011;21680;52.400;16.920;2023-03-24T05:13:43;11.10;;;5.00;;
35576;SDS011;21680;52.400;16.920;2023-03-24T05:16:08;8.30;;;5.30;;
35576;SDS011;21680;52.400;16.920;2023-03-24T05:18:34;8.30;;;4.60;;
35576;SDS011;21680;52.400;16.920;2023-03-24T05:21:00;10.60;;;4.50;;
35576;SDS011;21680;52.400;16.920;2023-03-24T05:23:25;8.80;;;5.00;;
35576;SDS011;21680;52.400;16.920;2023-03-24T05:25:50;8.50;;;4.30;;
35576;SDS011;21680;52.400;16.920;2023-03-24T05:28:16;14.00;;;4.80;;
35576;SDS011;21680;52.400;16.920;2023-03-24T05:30:41;8.80;;;4.80;;
35576;SDS011;21680;52.400;16.920;2023-03-24T05:33:07;8.90;;;4.90;;
35576;SDS011;21680;52.400;16.920;2023-03-24T05:35:32;12.20;;;5.20;;
35576;SDS011;21680;52.400;16.920;2023-03-24T05:37:57;12.50;;;5.50;;
35576;SDS011;21680;52.400;16.920;2023-03-24T05:40:22;8.70;;;5.10;;
35576;SDS011;21680;52.400;16.920;2023-03-24T05:42:48;11.80;;;4.60;;
35576;SDS011;21680;52.400;16.920;2023-03-24T05:45:15;7.40;;;4.30;;
35576;SDS011;21680;52.400;16.920;2023-03-24T05:47:40;15.30;;;4.90;;
35576;SDS011;21680;52.400;16.920;2023-03-24T05:50:06;10.80;;;4.70;;
35576;SDS011;21680;52.400;16.920;2023-03-24T05:52:32;8.70;;;4.80;;
35576;SDS011;21680;52.400;16.920;2023-03-24T05:54:58;8.90;;;5.10;;
35576;SDS011;21680;52.400;16.920;2023-03-24T05:57:23;10.50;;;4.30;;
35576;SDS011;21680;52.400;16.920;2023-03-24T05:59:48;13.60;;;4.70;;
35576;SDS011;21680;52.400;16.920;2023-03-24T06:02:14;7.40;;;4.20;;
35576;SDS011;21680;52.400;16.920;2023-03-24T06:04:39;9.30;;;4.70;;
35576;SDS011;21680;52.400;16.920;2023-03-24T06:07:10;7.90;;;4.60;;
35576;SDS011;21680;52.400;16.920;2023-03-24T06:09:37;9.30;;;4.40;;
35576;SDS011;21680;52.400;16.920;2023-03-24T06:12:06;8.60;;;4.40;;
35576;SDS011;21680;52.400;16.920;2023-03-24T06:14:32;8.40;;;4.30;;
35576;SDS011;21680;52.400;16.920;2023-03-24T06:16:58;7.60;;;4.30;;
35576;SDS011;21680;52.400;16.920;2023-03-24T06:19:24;10.00;;;4.50;;
35576;SDS011;21680;52.400;16.920;2023-03-24T06:21:51;11.10;;;4.60;;
35576;SDS011;21680;52.400;16.920;2023-03-24T06:24:17;11.20;;;4.90;;
35576;SDS011;21680;52.400;16.920;2023-03-24T06:26:43;10.60;;;4.70;;
35576;SDS011;21680;52.400;16.920;2023-03-24T06:29:10;8.90;;;5.00;;
35576;SDS011;21680;52.400;16.920;2023-03-24T06:31:37;10.60;;;4.70;;
35576;SDS011;21680;52.400;16.920;2023-03-24T06:34:03;11.10;;;4.90;;
35576;SDS011;21680;52.400;16.920;2023-03-24T06:36:28;8.40;;;4.30;;
35576;SDS011;21680;52.400;16.920;2023-03-24T06:38:54;13.80;;;5.40;;
35576;SDS011;21680;52.400;16.920;2023-03-24T06:41:20;15.70;;;5.30;;
35576;SDS011;21680;52.400;16.920;2023-03-24T06:43:46;12.80;;;6.30;;
35576;SDS011;21680;52.400;16.920;2023-03-24T06:46:11;18.50;;;5.90;;
35576;SDS011;21680;52.400;16.920;2023-03-24T06:48:36;14.70;;;5.70;;
35576;SDS011;21680;52.400;16.920;2023-03-24T06:51:03;10.40;;;5.50;;
35576;SDS011;21680;52.400;16.920;2023-03-24T06:53:28;14.90;;;5.60;;
35576;SDS011;21680;52.400;16.920;2023-03-24T06:55:53;9.60;;;5.20;;
35576;SDS011;21680;52.400;16.920;2023-03-24T06:58:19;8.10;;;4.90;;
35576;SDS011;21680;52.400;16.920;2023-03-24T07:00:45;8.00;;;4.40;;
35576;SDS011;21680;52.400;16.920;2023-03-24T07:03:11;8.80;;;4.40;;
35576;SDS011;21680;52.400;16.920;2023-03-24T07:05:38;8.20;;;4.00;;
35576;SDS011;21680;52.400;16.920;2023-03-24T07:08:04;10.50;;;4.30;;
35576;SDS011;21680;52.400;16.920;2023-03-24T07:10:30;9.50;;;4.40;;
35576;SDS011;21680;52.400;16.920;2023-03-24T07:12:56;9.30;;;4.50;;
35576;SDS011;21680;52.400;16.920;2023-03-24T07:15:22;7.60;;;4.40;;
35576;SDS011;21680;52.400;16.920;2023-03-24T07:17:47;9.40;;;4.20;;
35576;SDS011;21680;52.400;16.920;2023-03-24T07:20:13;9.40;;;4.40;;
35576;SDS011;21680;52.400;16.920;2023-03-24T07:22:39;12.40;;;4.90;;
35576;SDS011;21680;52.400;16.920;2023-03-24T07:25:05;8.20;;;4.30;;
35576;SDS011;21680;52.400;16.920;2023-03-24T07:27:31;8.00;;;4.60;;
35576;SDS011;21680;52.400;16.920;2023-03-24T07:29:58;8.30;;;4.70;;
35576;SDS011;21680;52.400;16.920;2023-03-24T07:32:24;7.00;;;4.30;;
35576;SDS011;21680;52.400;16.920;2023-03-24T07:34:50;7.70;;;4.70;;
35576;SDS011;21680;52.400;16.920;2023-03-24T07:37:15;9.40;;;5.20;;
35576;SDS011;21680;52.400;16.920;2023-03-24T07:39:40;13.80;;;4.70;;
35576;SDS011;21680;52.400;16.920;2023-03-24T07:42:06;12.10;;;5.40;;
35576;SDS011;21680;52.400;16.920;2023-03-24T07:44:31;13.00;;;5.20;;
35576;SDS011;21680;52.400;16.920;2023-03-24T07:46:57;8.80;;;4.70;;
35576;SDS011;21680;52.400;16.920;2023-03-24T07:49:22;10.00;;;5.20;;
35576;SDS011;21680;52.400;16.920;2023-03-24T07:51:47;10.00;;;4.60;;
35576;SDS011;21680;52.400;16.920;2023-03-24T07:54:12;10.40;;;4.40;;
35576;SDS011;21680;52.400;16.920;2023-03-24T07:56:38;8.30;;;4.70;;
35576;SDS011;21680;52.400;16.920;2023-03-24T07:59:04;9.40;;;5.10;;
35576;SDS011;21680;52.400;16.920;2023-03-24T08:01:30;7.00;;;4.80;;
35576;SDS011;21680;52.400;16.920;2023-03-24T08:03:55;7.40;;;4.40;;
35576;SDS011;21680;52.400;16.920;2023-03-24T08:06:21;9.30;;;4.90;;
35576;SDS011;21680;52.400;16.920;2023-03-24T08:08:46;5.90;;;4.00;;
35576;SDS011;21680;52.400;16.920;2023-03-24T08:11:11;6.40;;;3.70;;
35576;SDS011;21680;52.400;16.920;2023-03-24T08:13:37;6.80;;;3.80;;
35576;SDS011;21680;52.400;16.920;2023-03-24T08:16:02;6.00;;;3.60;;
35576;SDS011;21680;52.400;16.920;2023-03-24T08:18:28;7.30;;;4.40;;
35576;SDS011;21680;52.400;16.920;2023-03-24T08:20:56;8.80;;;4.40;;
35576;SDS011;21680;52.400;16.920;2023-03-24T08:23:22;6.30;;;3.60;;
35576;SDS011;21680;52.400;16.920;2023-03-24T08:25:48;7.40;;;3.90;;
35576;SDS011;21680;52.400;16.920;2023-03-24T08:28:14;6.80;;;3.90;;
35576;SDS011;21680;52.400;16.920;2023-03-24T08:30:40;10.40;;;3.70;;
35576;SDS011;21680;52.400;16.920;2023-03-24T08:33:11;5.90;;;3.60;;
35576;SDS011;21680;52.400;16.920;2023-03-24T08:35:37;6.70;;;4.10;;
35576;SDS011;21680;52.400;16.920;2023-03-24T08:38:03;7.40;;;3.80;;
35576;SDS011;21680;52.400;16.920;2023-03-24T08:40:29;5.50;;;3.50;;
35576;SDS011;21680;52.400;16.920;2023-03-24T08:42:56;7.30;;;3.60;;
35576;SDS011;21680;52.400;16.920;2023-03-24T08:45:24;5.50;;;3.30;;
35576;SDS011;21680;52.400;16.920;2023-03-24T08:47:52;7.90;;;4.00;;
35576;SDS011;21680;52.400;16.920;2023-03-24T08:50:20;6.60;;;3.40;;
35576;SDS011;21680;52.400;16.920;2023-03-24T08:52:47;6.20;;;3.40;;
35576;SDS011;21680;52.400;16.920;2023-03-24T08:55:14;6.00;;;3.10;;
35576;SDS011;21680;52.400;16.920;2023-03-24T08:57:40;6.80;;;3.70;;
35576;SDS011;21680;52.400;16.920;2023-03-24T09:00:06;7.60;;;3.40;;
35576;SDS011;21680;52.400;16.920;2023-03-24T09:02:37;8.00;;;3.30;;
35576;SDS011;21680;52.400;16.920;2023-03-24T09:05:03;11.20;;;3.10;;
35576;SDS011;21680;52.400;16.920;2023-03-24T09:07:28;5.00;;;3.40;;
35576;SDS011;21680;52.400;16.920;2023-03-24T09:09:54;6.30;;;3.20;;
35576;SDS011;21680;52.400;16.920;2023-03-24T09:12:19;5.20;;;2.50;;
35576;SDS011;21680;52.400;16.920;2023-03-24T09:14:48;8.10;;;3.40;;
35576;SDS011;21680;52.400;16.920;2023-03-24T09:17:14;4.10;;;2.50;;
35576;SDS011;21680;52.400;16.920;2023-03-24T09:19:40;7.90;;;3.10;;
35576;SDS011;21680;52.400;16.920;2023-03-24T09:22:05;7.50;;;3.00;;
35576;SDS011;21680;52.400;16.920;2023-03-24T09:24:31;4.90;;;2.50;;
35576;SDS011;21680;52.400;16.920;2023-03-24T09:26:56;6.90;;;2.30;;
35576;SDS011;21680;52.400;16.920;2023-03-24T09:29:21;4.10;;;2.20;;
35576;SDS011;21680;52.400;16.920;2023-03-24T09:31:46;5.10;;;3.00;;
35576;SDS011;21680;52.400;16.920;2023-03-24T09:34:12;2.80;;;2.20;;
35576;SDS011;21680;52.400;16.920;2023-03-24T09:36:37;8.50;;;2.90;;
35576;SDS011;21680;52.400;16.920;2023-03-24T09:39:02;5.90;;;3.60;;
35576;SDS011;21680;52.400;16.920;2023-03-24T09:41:28;5.40;;;3.20;;
35576;SDS011;21680;52.400;16.920;2023-03-24T09:43:58;7.50;;;3.10;;
35576;SDS011;21680;52.400;16.920;2023-03-24T09:46:34;9.60;;;4.10;;
35576;SDS011;21680;52.400;16.920;2023-03-24T09:49:07;8.90;;;2.90;;
35576;SDS011;21680;52.400;16.920;2023-03-24T09:51:39;6.90;;;3.20;;
35576;SDS011;21680;52.400;16.920;2023-03-24T09:57:01;11.90;;;3.90;;
35576;SDS011;21680;52.400;16.920;2023-03-24T10:02:03;4.20;;;2.70;;
35576;SDS011;21680;52.400;16.920;2023-03-24T10:04:36;6.90;;;3.10;;
35576;SDS011;21680;52.400;16.920;2023-03-24T10:07:48;4.20;;;3.20;;
35576;SDS011;21680;52.400;16.920;2023-03-24T10:10:00;7.00;;;3.00;;
35576;SDS011;21680;52.400;16.920;2023-03-24T10:12:31;8.80;;;3.60;;
35576;SDS011;21680;52.400;16.920;2023-03-24T10:20:49;11.00;;;3.30;;
35576;SDS011;21680;52.400;16.920;2023-03-24T10:26:16;5.30;;;3.00;;
35576;SDS011;21680;52.400;16.920;2023-03-24T10:31:46;6.70;;;3.60;;
35576;SDS011;21680;52.400;16.920;2023-03-24T10:34:15;6.00;;;3.50;;
35576;SDS011;21680;52.400;16.920;2023-03-24T10:36:41;6.80;;;3.20;;
35576;SDS011;21680;52.400;16.920;2023-03-24T10:39:13;6.90;;;3.10;;
35576;SDS011;21680;52.400;16.920;2023-03-24T10:41:40;6.30;;;3.10;;
35576;SDS011;21680;52.400;16.920;2023-03-24T10:44:06;5.10;;;3.10;;
35576;SDS011;21680;52.400;16.920;2023-03-24T10:46:33;5.60;;;3.20;;
35576;SDS011;21680;52.400;16.920;2023-03-24T10:51:41;4.70;;;3.10;;
35576;SDS011;21680;52.400;16.920;2023-03-24T10:54:20;6.70;;;3.30;;
35576;SDS011;21680;52.400;16.920;2023-03-24T11:02:01;5.80;;;3.50;;
35576;SDS011;21680;52.400;16.920;2023-03-24T11:04:35;5.30;;;3.30;;
35576;SDS011;21680;52.400;16.920;2023-03-24T11:10:01;7.20;;;3.60;;
35576;SDS011;21680;52.400;16.920;2023-03-24T11:12:38;5.40;;;3.30;;
35576;SDS011;21680;52.400;16.920;2023-03-24T11:17:41;9.00;;;3.50;;
35576;SDS011;21680;52.400;16.920;2023-03-24T11:20:14;7.30;;;3.30;;
35576;SDS011;21680;52.400;16.920;2023-03-24T11:22:47;7.10;;;2.80;;
35576;SDS011;21680;52.400;16.920;2023-03-24T11:25:32;5.50;;;3.30;;
35576;SDS011;21680;52.400;16.920;2023-03-24T11:28:02;4.00;;;3.20;;
35576;SDS011;21680;52.400;16.920;2023-03-24T11:33:17;5.50;;;3.80;;
35576;SDS011;21680;52.400;16.920;2023-03-24T11:35:46;6.90;;;3.60;;
35576;SDS011;21680;52.400;16.920;2023-03-24T11:38:14;4.20;;;3.40;;
35576;SDS011;21680;52.400;16.920;2023-03-24T11:40:54;9.70;;;3.90;;
35576;SDS011;21680;52.400;16.920;2023-03-24T11:43:22;4.00;;;3.20;;
35576;SDS011;21680;52.400;16.920;2023-03-24T11:45:55;4.60;;;3.30;;
35576;SDS011;21680;52.400;16.920;2023-03-24T11:48:34;8.40;;;3.40;;
35576;SDS011;21680;52.400;16.920;2023-03-24T11:51:09;7.30;;;3.40;;
35576;SDS011;21680;52.400;16.920;2023-03-24T11:53:41;5.60;;;3.80;;
35576;SDS011;21680;52.400;16.920;2023-03-24T11:58:39;5.50;;;3.50;;
35576;SDS011;21680;52.400;16.920;2023-03-24T12:06:20;6.20;;;3.40;;
35576;SDS011;21680;52.400;16.920;2023-03-24T12:09:09;10.60;;;4.30;;
35576;SDS011;21680;52.400;16.920;2023-03-24T12:14:31;6.80;;;3.50;;
35576;SDS011;21680;52.400;16.920;2023-03-24T12:17:10;6.10;;;3.60;;
35576;SDS011;21680;52.400;16.920;2023-03-24T12:19:45;7.30;;;3.40;;
35576;SDS011;21680;52.400;16.920;2023-03-24T12:22:31;11.00;;;3.50;;
35576;SDS011;21680;52.400;16.920;2023-03-24T12:31:25;6.10;;;3.80;;
35576;SDS011;21680;52.400;16.920;2023-03-24T12:36:49;5.80;;;4.10;;
35576;SDS011;21680;52.400;16.920;2023-03-24T12:39:29;8.60;;;4.40;;
35576;SDS011;21680;52.400;16.920;2023-03-24T12:44:41;6.80;;;3.60;;
35576;SDS011;21680;52.400;16.920;2023-03-24T12:47:32;5.40;;;3.80;;
35576;SDS011;21680;52.400;16.920;2023-03-24T12:53:03;5.80;;;2.90;;
35576;SDS011;21680;52.400;16.920;2023-03-24T12:55:34;3.70;;;2.40;;
35576;SDS011;21680;52.400;16.920;2023-03-24T13:01:04;5.70;;;2.30;;
35576;SDS011;21680;52.400;16.920;2023-03-24T13:03:54;5.50;;;2.30;;
35576;SDS011;21680;52.400;16.920;2023-03-24T13:06:26;3.40;;;1.60;;
35576;SDS011;21680;52.400;16.920;2023-03-24T13:09:02;3.40;;;2.00;;
35576;SDS011;21680;52.400;16.920;2023-03-24T13:11:35;7.00;;;1.90;;
35576;SDS011;21680;52.400;16.920;2023-03-24T13:14:10;2.10;;;1.70;;
35576;SDS011;21680;52.400;16.920;2023-03-24T13:16:39;8.80;;;1.90;;
35576;SDS011;21680;52.400;16.920;2023-03-24T13:19:09;2.00;;;1.10;;
35576;SDS011;21680;52.400;16.920;2023-03-24T13:21:42;1.60;;;0.90;;
35576;SDS011;21680;52.400;16.920;2023-03-24T13:24:11;2.30;;;1.30;;
35576;SDS011;21680;52.400;16.920;2023-03-24T13:27:24;2.40;;;1.30;;
35576;SDS011;21680;52.400;16.920;2023-03-24T13:32:30;2.60;;;1.90;;
35576;SDS011;21680;52.400;16.920;2023-03-24T13:37:35;3.40;;;1.30;;
35576;SDS011;21680;52.400;16.920;2023-03-24T13:40:04;12.60;;;1.50;;
35576;SDS011;21680;52.400;16.920;2023-03-24T13:42:36;1.10;;;1.00;;
35576;SDS011;21680;52.400;16.920;2023-03-24T13:45:17;6.30;;;1.50;;
35576;SDS011;21680;52.400;16.920;2023-03-24T13:47:49;4.70;;;1.60;;
35576;SDS011;21680;52.400;16.920;2023-03-24T13:50:27;2.10;;;1.40;;
35576;SDS011;21680;52.400;16.920;2023-03-24T13:52:56;6.90;;;1.20;;
35576;SDS011;21680;52.400;16.920;2023-03-24T13:55:30;3.40;;;1.40;;
35576;SDS011;21680;52.400;16.920;2023-03-24T13:58:05;2.10;;;1.00;;
35576;SDS011;21680;52.400;16.920;2023-03-24T14:01:03;3.20;;;1.40;;
35576;SDS011;21680;52.400;16.920;2023-03-24T14:03:33;9.80;;;1.60;;
35576;SDS011;21680;52.400;16.920;2023-03-24T14:06:03;4.90;;;1.30;;
35576;SDS011;21680;52.400;16.920;2023-03-24T14:09:13;4.20;;;1.70;;
35576;SDS011;21680;52.400;16.920;2023-03-24T14:14:05;2.40;;;1.20;;
35576;SDS011;21680;52.400;16.920;2023-03-24T14:16:48;11.00;;;2.00;;
35576;SDS011;21680;52.400;16.920;2023-03-24T14:19:44;3.60;;;1.50;;
35576;SDS011;21680;52.400;16.920;2023-03-24T14:22:33;5.30;;;1.70;;
35576;SDS011;21680;52.400;16.920;2023-03-24T14:27:41;6.40;;;1.40;;
35576;SDS011;21680;52.400;16.920;2023-03-24T14:40:44;5.30;;;1.10;;
35576;SDS011;21680;52.400;16.920;2023-03-24T14:43:17;6.00;;;1.50;;
35576;SDS011;21680;52.400;16.920;2023-03-24T14:51:40;5.00;;;1.60;;
35576;SDS011;21680;52.400;16.920;2023-03-24T14:57:03;4.90;;;1.50;;
35576;SDS011;21680;52.400;16.920;2023-03-24T15:05:16;4.10;;;1.60;;
35576;SDS011;21680;52.400;16.920;2023-03-24T15:08:19;5.10;;;1.60;;
35576;SDS011;21680;52.400;16.920;2023-03-24T15:10:53;2.80;;;1.90;;
35576;SDS011;21680;52.400;16.920;2023-03-24T15:16:00;5.00;;;1.80;;
35576;SDS011;21680;52.400;16.920;2023-03-24T15:18:42;8.40;;;3.30;;
35576;SDS011;21680;52.400;16.920;2023-03-24T15:23:51;2.20;;;1.50;;
35576;SDS011;21680;52.400;16.920;2023-03-24T15:26:17;2.10;;;1.40;;
35576;SDS011;21680;52.400;16.920;2023-03-24T15:28:46;2.40;;;1.70;;
35576;SDS011;21680;52.400;16.920;2023-03-24T15:33:46;2.80;;;1.70;;
35576;SDS011;21680;52.400;16.920;2023-03-24T15:36:12;4.20;;;1.90;;
35576;SDS011;21680;52.400;16.920;2023-03-24T15:38:45;9.40;;;1.60;;
35576;SDS011;21680;52.400;16.920;2023-03-24T15:41:14;2.40;;;1.50;;
35576;SDS011;21680;52.400;16.920;2023-03-24T15:43:45;2.10;;;1.60;;
35576;SDS011;21680;52.400;16.920;2023-03-24T15:46:26;1.30;;;1.20;;
35576;SDS011;21680;52.400;16.920;2023-03-24T15:48:54;3.10;;;1.30;;
35576;SDS011;21680;52.400;16.920;2023-03-24T15:57:15;4.30;;;1.50;;
35576;SDS011;21680;52.400;16.920;2023-03-24T16:02:25;2.60;;;1.70;;
35576;SDS011;21680;52.400;16.920;2023-03-24T16:05:19;2.90;;;2.00;;
35576;SDS011;21680;52.400;16.920;2023-03-24T16:08:02;5.40;;;2.30;;
35576;SDS011;21680;52.400;16.920;2023-03-24T16:10:29;5.60;;;2.30;;
35576;SDS011;21680;52.400;16.920;2023-03-24T16:13:13;6.80;;;3.10;;
35576;SDS011;21680;52.400;16.920;2023-03-24T16:15:41;5.80;;;2.60;;
35576;SDS011;21680;52.400;16.920;2023-03-24T16:18:11;6.50;;;3.00;;
35576;SDS011;21680;52.400;16.920;2023-03-24T16:20:42;5.00;;;2.40;;
35576;SDS011;21680;52.400;16.920;2023-03-24T16:23:08;5.10;;;2.30;;
35576;SDS011;21680;52.400;16.920;2023-03-24T16:25:35;5.50;;;2.20;;
35576;SDS011;21680;52.400;16.920;2023-03-24T16:28:01;4.00;;;1.90;;
35576;SDS011;21680;52.400;16.920;2023-03-24T16:30:26;5.60;;;2.90;;
35576;SDS011;21680;52.400;16.920;2023-03-24T16:32:55;4.90;;;1.60;;
35576;SDS011;21680;52.400;16.920;2023-03-24T16:35:20;5.10;;;2.00;;
35576;SDS011;21680;52.400;16.920;2023-03-24T16:37:46;3.50;;;1.90;;
35576;SDS011;21680;52.400;16.920;2023-03-24T16:40:19;6.60;;;2.30;;
35576;SDS011;21680;52.400;16.920;2023-03-24T16:43:11;5.60;;;2.30;;
35576;SDS011;21680;52.400;16.920;2023-03-24T16:45:36;1.90;;;1.40;;
35576;SDS011;21680;52.400;16.920;2023-03-24T16:48:01;4.40;;;2.10;;
35576;SDS011;21680;52.400;16.920;2023-03-24T16:50:29;5.70;;;2.30;;
35576;SDS011;21680;52.400;16.920;2023-03-24T16:52:57;4.90;;;2.00;;
35576;SDS011;21680;52.400;16.920;2023-03-24T16:55:26;2.50;;;1.60;;
35576;SDS011;21680;52.400;16.920;2023-03-24T16:57:51;6.30;;;2.00;;
35576;SDS011;21680;52.400;16.920;2023-03-24T17:00:17;3.40;;;1.90;;
35576;SDS011;21680;52.400;16.920;2023-03-24T17:02:43;5.70;;;1.80;;
35576;SDS011;21680;52.400;16.920;2023-03-24T17:05:46;4.40;;;2.00;;
35576;SDS011;21680;52.400;16.920;2023-03-24T17:08:05;4.80;;;2.00;;
35576;SDS011;21680;52.400;16.920;2023-03-24T17:10:31;3.90;;;2.20;;
35576;SDS011;21680;52.400;16.920;2023-03-24T17:12:56;6.00;;;2.10;;
35576;SDS011;21680;52.400;16.920;2023-03-24T17:15:23;3.20;;;1.90;;
35576;SDS011;21680;52.400;16.920;2023-03-24T17:17:50;2.90;;;1.90;;
35576;SDS011;21680;52.400;16.920;2023-03-24T17:20:16;2.30;;;1.90;;
35576;SDS011;21680;52.400;16.920;2023-03-24T17:22:42;3.60;;;2.00;;
35576;SDS011;21680;52.400;16.920;2023-03-24T17:25:09;3.50;;;2.00;;
35576;SDS011;21680;52.400;16.920;2023-03-24T17:27:36;4.20;;;2.10;;
35576;SDS011;21680;52.400;16.920;2023-03-24T17:30:03;4.00;;;2.70;;
35576;SDS011;21680;52.400;16.920;2023-03-24T17:32:30;4.20;;;2.60;;
35576;SDS011;21680;52.400;16.920;2023-03-24T17:34:59;6.60;;;3.00;;
35576;SDS011;21680;52.400;16.920;2023-03-24T17:37:27;6.20;;;3.00;;